Terminal Aerodrome Forecast
Issued by NWS

Home | Current Version | Previous Version | Text Only | Print | Product List | Glossary On
Versions: 1 2 3 4 5 6 7 8 9 10 11 12 13 14 15 16
549
FTUS46 KSEW 180525
TAFOLM
TAF
KOLM 180525Z 1806/1906 21014G24KT 6SM -RA BR SCT015 OVC040
     FM180800 22012KT 4SM -RA BR BKN015 OVC035
     FM181800 22014G20KT P6SM -SHRA BKN025 OVC050
     FM190300 20006KT 3SM BR BKN005 OVC015=

USA.gov is the U.S. government's official web portal to all federal, state and local government web resources and services.